sensor_id;sensor_type;location;lat;lon;timestamp;pressure;altitude;pressure_sealevel;temperature;humidity
64189;BME280;50493;50.970;10.082;2024-03-25T00:00:35;98109.28;;;5.23;66.73
64189;BME280;50493;50.970;10.082;2024-03-25T00:03:00;98104.19;;;5.98;61.89
64189;BME280;50493;50.970;10.082;2024-03-25T00:05:26;98106.59;;;5.68;64.43
64189;BME280;50493;50.970;10.082;2024-03-25T00:07:54;98103.97;;;5.71;63.91
64189;BME280;50493;50.970;10.082;2024-03-25T00:10:19;98102.25;;;6.08;60.73
64189;BME280;50493;50.970;10.082;2024-03-25T00:12:46;98107.84;;;5.91;63.45
64189;BME280;50493;50.970;10.082;2024-03-25T00:15:11;98101.69;;;5.56;64.90
64189;BME280;50493;50.970;10.082;2024-03-25T00:17:36;98105.31;;;5.88;63.20
64189;BME280;50493;50.970;10.082;2024-03-25T00:20:02;98114.31;;;5.29;66.11
64189;BME280;50493;50.970;10.082;2024-03-25T00:22:31;98114.66;;;5.56;64.43
64189;BME280;50493;50.970;10.082;2024-03-25T00:24:57;98113.78;;;5.57;64.68
64189;BME280;50493;50.970;10.082;2024-03-25T00:27:23;98115.34;;;5.64;61.98
64189;BME280;50493;50.970;10.082;2024-03-25T00:29:48;98119.28;;;4.98;67.36
64189;BME280;50493;50.970;10.082;2024-03-25T00:32:13;98122.66;;;5.43;65.36
64189;BME280;50493;50.970;10.082;2024-03-25T00:34:40;98116.94;;;5.71;63.74
64189;BME280;50493;50.970;10.082;2024-03-25T00:37:05;98128.47;;;5.13;66.19
64189;BME280;50493;50.970;10.082;2024-03-25T00:39:31;98122.78;;;5.37;64.32
64189;BME280;50493;50.970;10.082;2024-03-25T00:41:58;98119.66;;;5.65;63.47
64189;BME280;50493;50.970;10.082;2024-03-25T00:44:24;98128.16;;;5.30;65.53
64189;BME280;50493;50.970;10.082;2024-03-25T00:46:49;98131.75;;;5.21;65.79
64189;BME280;50493;50.970;10.082;2024-03-25T00:49:15;98135.97;;;5.70;62.86
64189;BME280;50493;50.970;10.082;2024-03-25T00:51:40;98128.22;;;6.06;59.26
64189;BME280;50493;50.970;10.082;2024-03-25T00:54:06;98124.03;;;6.37;58.52
64189;BME280;50493;50.970;10.082;2024-03-25T00:56:31;98132.13;;;6.24;59.39
64189;BME280;50493;50.970;10.082;2024-03-25T00:58:58;98137.31;;;5.87;62.14
64189;BME280;50493;50.970;10.082;2024-03-25T01:01:27;98138.88;;;5.94;60.46
64189;BME280;50493;50.970;10.082;2024-03-25T01:03:52;98132.22;;;6.20;60.35
64189;BME280;50493;50.970;10.082;2024-03-25T01:06:18;98133.66;;;5.97;61.06
64189;BME280;50493;50.970;10.082;2024-03-25T01:08:43;98142.78;;;5.74;62.64
64189;BME280;50493;50.970;10.082;2024-03-25T01:11:08;98141.38;;;5.99;60.52
64189;BME280;50493;50.970;10.082;2024-03-25T01:13:34;98145.06;;;5.88;62.02
64189;BME280;50493;50.970;10.082;2024-03-25T01:16:00;98137.44;;;5.81;61.83
64189;BME280;50493;50.970;10.082;2024-03-25T01:18:26;98133.34;;;5.72;62.10
64189;BME280;50493;50.970;10.082;2024-03-25T01:20:51;98142.47;;;5.88;62.12
64189;BME280;50493;50.970;10.082;2024-03-25T01:23:17;98132.00;;;5.93;59.77
64189;BME280;50493;50.970;10.082;2024-03-25T01:25:42;98135.00;;;6.14;59.60
64189;BME280;50493;50.970;10.082;2024-03-25T01:28:07;98138.22;;;5.86;61.00
64189;BME280;50493;50.970;10.082;2024-03-25T01:30:33;98134.53;;;5.57;63.09
64189;BME280;50493;50.970;10.082;2024-03-25T01:33:02;98132.72;;;5.59;62.81
64189;BME280;50493;50.970;10.082;2024-03-25T01:35:27;98133.91;;;5.85;61.67
64189;BME280;50493;50.970;10.082;2024-03-25T01:37:53;98137.81;;;5.65;62.73
64189;BME280;50493;50.970;10.082;2024-03-25T01:40:19;98138.75;;;5.16;65.02
64189;BME280;50493;50.970;10.082;2024-03-25T01:42:55;98134.19;;;5.72;62.99
64189;BME280;50493;50.970;10.082;2024-03-25T01:45:20;98129.72;;;5.79;62.46
64189;BME280;50493;50.970;10.082;2024-03-25T01:47:45;98133.13;;;5.40;63.76
64189;BME280;50493;50.970;10.082;2024-03-25T01:50:12;98130.09;;;6.01;60.79
64189;BME280;50493;50.970;10.082;2024-03-25T01:52:39;98133.31;;;6.47;59.43
64189;BME280;50493;50.970;10.082;2024-03-25T01:55:07;98135.50;;;6.28;59.68
64189;BME280;50493;50.970;10.082;2024-03-25T01:57:36;98145.16;;;6.57;59.01
64189;BME280;50493;50.970;10.082;2024-03-25T02:00:05;98148.91;;;6.09;60.51
64189;BME280;50493;50.970;10.082;2024-03-25T02:02:31;98141.06;;;6.13;60.26
64189;BME280;50493;50.970;10.082;2024-03-25T02:04:59;98152.84;;;5.88;61.83
64189;BME280;50493;50.970;10.082;2024-03-25T02:07:27;98157.00;;;5.96;61.32
64189;BME280;50493;50.970;10.082;2024-03-25T02:09:54;98152.53;;;6.02;61.07
64189;BME280;50493;50.970;10.082;2024-03-25T02:12:19;98156.91;;;5.61;62.40
64189;BME280;50493;50.970;10.082;2024-03-25T02:14:45;98164.41;;;5.73;62.07
64189;BME280;50493;50.970;10.082;2024-03-25T02:17:11;98170.31;;;5.38;63.03
64189;BME280;50493;50.970;10.082;2024-03-25T02:19:37;98163.81;;;5.62;62.51
64189;BME280;50493;50.970;10.082;2024-03-25T02:22:03;98185.44;;;4.64;66.63
64189;BME280;50493;50.970;10.082;2024-03-25T02:24:31;98191.28;;;4.22;68.93
64189;BME280;50493;50.970;10.082;2024-03-25T02:26:58;98186.41;;;4.04;70.11
64189;BME280;50493;50.970;10.082;2024-03-25T02:29:32;98190.69;;;4.06;69.64
64189;BME280;50493;50.970;10.082;2024-03-25T02:31:58;98187.06;;;4.17;69.56
64189;BME280;50493;50.970;10.082;2024-03-25T02:34:23;98189.47;;;4.29;68.83
64189;BME280;50493;50.970;10.082;2024-03-25T02:36:48;98184.78;;;4.53;67.75
64189;BME280;50493;50.970;10.082;2024-03-25T02:39:14;98188.69;;;4.77;66.63
64189;BME280;50493;50.970;10.082;2024-03-25T02:41:40;98191.53;;;5.12;65.19
64189;BME280;50493;50.970;10.082;2024-03-25T02:44:06;98189.16;;;5.48;63.30
64189;BME280;50493;50.970;10.082;2024-03-25T02:46:32;98182.84;;;6.00;61.66
64189;BME280;50493;50.970;10.082;2024-03-25T02:48:58;98190.22;;;6.19;60.67
64189;BME280;50493;50.970;10.082;2024-03-25T02:51:24;98188.19;;;6.32;59.77
64189;BME280;50493;50.970;10.082;2024-03-25T02:53:49;98192.91;;;5.75;61.78
64189;BME280;50493;50.970;10.082;2024-03-25T02:56:15;98196.38;;;5.75;61.27
64189;BME280;50493;50.970;10.082;2024-03-25T02:58:40;98204.38;;;6.05;59.96
64189;BME280;50493;50.970;10.082;2024-03-25T03:01:06;98209.09;;;5.86;60.44
64189;BME280;50493;50.970;10.082;2024-03-25T03:03:32;98211.63;;;5.46;62.54
64189;BME280;50493;50.970;10.082;2024-03-25T03:05:57;98211.03;;;5.31;63.22
64189;BME280;50493;50.970;10.082;2024-03-25T03:08:23;98218.50;;;5.01;64.82
64189;BME280;50493;50.970;10.082;2024-03-25T03:10:48;98224.00;;;4.83;65.71
64189;BME280;50493;50.970;10.082;2024-03-25T03:13:13;98231.03;;;4.74;66.05
64189;BME280;50493;50.970;10.082;2024-03-25T03:15:43;98235.00;;;4.96;65.28
64189;BME280;50493;50.970;10.082;2024-03-25T03:18:10;98244.22;;;4.57;66.42
64189;BME280;50493;50.970;10.082;2024-03-25T03:20:35;98231.66;;;4.89;65.43
64189;BME280;50493;50.970;10.082;2024-03-25T03:23:00;98244.69;;;4.83;66.19
64189;BME280;50493;50.970;10.082;2024-03-25T03:25:26;98247.09;;;4.40;67.43
64189;BME280;50493;50.970;10.082;2024-03-25T03:27:51;98239.50;;;4.30;68.09
64189;BME280;50493;50.970;10.082;2024-03-25T03:30:16;98240.81;;;4.57;67.09
64189;BME280;50493;50.970;10.082;2024-03-25T03:32:42;98241.25;;;4.84;66.29
64189;BME280;50493;50.970;10.082;2024-03-25T03:35:08;98244.34;;;5.04;64.97
64189;BME280;50493;50.970;10.082;2024-03-25T03:37:34;98239.06;;;5.09;65.07
64189;BME280;50493;50.970;10.082;2024-03-25T03:39:59;98242.00;;;5.37;63.81
64189;BME280;50493;50.970;10.082;2024-03-25T03:42:24;98243.47;;;5.54;62.51
64189;BME280;50493;50.970;10.082;2024-03-25T03:44:50;98235.38;;;5.69;62.24
64189;BME280;50493;50.970;10.082;2024-03-25T03:47:15;98246.50;;;5.74;61.81
64189;BME280;50493;50.970;10.082;2024-03-25T03:49:41;98252.00;;;5.59;62.16
64189;BME280;50493;50.970;10.082;2024-03-25T03:52:07;98250.06;;;5.70;61.54
64189;BME280;50493;50.970;10.082;2024-03-25T03:54:33;98254.56;;;5.61;62.20
64189;BME280;50493;50.970;10.082;2024-03-25T03:56:58;98254.91;;;5.86;61.30
64189;BME280;50493;50.970;10.082;2024-03-25T03:59:23;98260.72;;;5.55;61.84
64189;BME280;50493;50.970;10.082;2024-03-25T04:01:49;98259.72;;;5.62;61.88
64189;BME280;50493;50.970;10.082;2024-03-25T04:04:14;98260.47;;;5.67;61.96
64189;BME280;50493;50.970;10.082;2024-03-25T04:06:39;98259.91;;;5.53;62.39
64189;BME280;50493;50.970;10.082;2024-03-25T04:09:06;98265.38;;;5.83;60.93
64189;BME280;50493;50.970;10.082;2024-03-25T04:11:35;98257.25;;;5.56;62.04
64189;BME280;50493;50.970;10.082;2024-03-25T04:14:00;98256.44;;;5.54;61.93
64189;BME280;50493;50.970;10.082;2024-03-25T04:16:26;98256.28;;;6.02;60.27
64189;BME280;50493;50.970;10.082;2024-03-25T04:18:51;98253.66;;;6.05;60.39
64189;BME280;50493;50.970;10.082;2024-03-25T04:21:16;98255.81;;;6.25;60.72
64189;BME280;50493;50.970;10.082;2024-03-25T04:23:42;98254.50;;;6.45;59.31
64189;BME280;50493;50.970;10.082;2024-03-25T04:26:09;98256.25;;;6.44;59.19
64189;BME280;50493;50.970;10.082;2024-03-25T04:28:35;98259.56;;;6.51;60.39
64189;BME280;50493;50.970;10.082;2024-03-25T04:31:00;98264.63;;;6.56;59.71
64189;BME280;50493;50.970;10.082;2024-03-25T04:33:26;98261.41;;;6.84;58.68
64189;BME280;50493;50.970;10.082;2024-03-25T04:35:51;98257.13;;;6.81;58.05
64189;BME280;50493;50.970;10.082;2024-03-25T04:38:16;98257.78;;;6.53;59.44
64189;BME280;50493;50.970;10.082;2024-03-25T04:40:42;98260.28;;;6.58;58.67
64189;BME280;50493;50.970;10.082;2024-03-25T04:43:08;98267.59;;;6.40;58.68
64189;BME280;50493;50.970;10.082;2024-03-25T04:45:34;98274.00;;;6.24;59.79
64189;BME280;50493;50.970;10.082;2024-03-25T04:47:59;98276.53;;;6.27;58.68
64189;BME280;50493;50.970;10.082;2024-03-25T04:50:25;98276.09;;;6.08;59.31
64189;BME280;50493;50.970;10.082;2024-03-25T04:52:51;98280.47;;;6.04;59.28
64189;BME280;50493;50.970;10.082;2024-03-25T04:55:16;98282.19;;;6.05;59.81
64189;BME280;50493;50.970;10.082;2024-03-25T04:57:42;98283.47;;;5.84;60.01
64189;BME280;50493;50.970;10.082;2024-03-25T05:00:10;98298.75;;;5.54;61.53
64189;BME280;50493;50.970;10.082;2024-03-25T05:02:36;98294.63;;;5.41;62.06
64189;BME280;50493;50.970;10.082;2024-03-25T05:05:02;98301.56;;;5.40;62.01
64189;BME280;50493;50.970;10.082;2024-03-25T05:07:27;98294.25;;;5.64;61.25
64189;BME280;50493;50.970;10.082;2024-03-25T05:09:53;98304.03;;;5.48;61.69
64189;BME280;50493;50.970;10.082;2024-03-25T05:12:18;98302.91;;;5.63;61.79
64189;BME280;50493;50.970;10.082;2024-03-25T05:14:43;98312.28;;;5.20;62.55
64189;BME280;50493;50.970;10.082;2024-03-25T05:17:10;98308.72;;;5.26;62.61
64189;BME280;50493;50.970;10.082;2024-03-25T05:19:35;98309.16;;;5.53;61.33
64189;BME280;50493;50.970;10.082;2024-03-25T05:22:01;98328.22;;;4.36;66.19
64189;BME280;50493;50.970;10.082;2024-03-25T05:24:26;98339.34;;;4.43;66.29
64189;BME280;50493;50.970;10.082;2024-03-25T05:26:53;98335.66;;;4.61;65.53
64189;BME280;50493;50.970;10.082;2024-03-25T05:29:18;98330.69;;;4.44;66.00
64189;BME280;50493;50.970;10.082;2024-03-25T05:31:56;98337.03;;;4.23;66.76
64189;BME280;50493;50.970;10.082;2024-03-25T05:34:23;98327.81;;;4.67;66.41
64189;BME280;50493;50.970;10.082;2024-03-25T05:36:48;98329.13;;;4.93;64.48
64189;BME280;50493;50.970;10.082;2024-03-25T05:39:14;98327.13;;;5.11;63.42
64189;BME280;50493;50.970;10.082;2024-03-25T05:41:39;98327.47;;;4.89;64.08
64189;BME280;50493;50.970;10.082;2024-03-25T05:44:04;98328.44;;;4.82;64.32
64189;BME280;50493;50.970;10.082;2024-03-25T05:46:30;98337.63;;;5.01;64.03
64189;BME280;50493;50.970;10.082;2024-03-25T05:48:55;98324.72;;;5.97;61.26
64189;BME280;50493;50.970;10.082;2024-03-25T05:51:22;98336.94;;;5.41;61.92
64189;BME280;50493;50.970;10.082;2024-03-25T05:53:47;98331.94;;;5.81;60.55
64189;BME280;50493;50.970;10.082;2024-03-25T05:56:12;98339.16;;;5.15;63.11
64189;BME280;50493;50.970;10.082;2024-03-25T05:58:38;98345.03;;;5.24;62.51
64189;BME280;50493;50.970;10.082;2024-03-25T06:01:03;98340.28;;;5.51;62.98
64189;BME280;50493;50.970;10.082;2024-03-25T06:03:29;98346.97;;;5.63;61.17
64189;BME280;50493;50.970;10.082;2024-03-25T06:05:55;98351.97;;;5.75;60.59
64189;BME280;50493;50.970;10.082;2024-03-25T06:08:21;98357.81;;;5.35;62.26
64189;BME280;50493;50.970;10.082;2024-03-25T06:10:50;98356.00;;;5.40;62.33
64189;BME280;50493;50.970;10.082;2024-03-25T06:13:16;98356.94;;;5.85;60.66
64189;BME280;50493;50.970;10.082;2024-03-25T06:15:41;98352.59;;;5.87;60.20
64189;BME280;50493;50.970;10.082;2024-03-25T06:18:07;98352.00;;;6.18;59.47
64189;BME280;50493;50.970;10.082;2024-03-25T06:20:32;98360.13;;;5.99;61.46
64189;BME280;50493;50.970;10.082;2024-03-25T06:22:57;98351.47;;;6.00;59.86
64189;BME280;50493;50.970;10.082;2024-03-25T06:25:24;98358.19;;;6.10;60.54
64189;BME280;50493;50.970;10.082;2024-03-25T06:27:49;98361.56;;;6.58;59.58
64189;BME280;50493;50.970;10.082;2024-03-25T06:30:15;98365.63;;;6.27;60.15
64189;BME280;50493;50.970;10.082;2024-03-25T06:32:59;98365.00;;;6.58;58.70
64189;BME280;50493;50.970;10.082;2024-03-25T06:35:43;98354.03;;;6.83;59.38
64189;BME280;50493;50.970;10.082;2024-03-25T06:38:08;98346.44;;;7.11;57.93
64189;BME280;50493;50.970;10.082;2024-03-25T06:40:35;98352.78;;;7.01;58.24
64189;BME280;50493;50.970;10.082;2024-03-25T06:43:01;98360.81;;;7.26;58.87
64189;BME280;50493;50.970;10.082;2024-03-25T06:45:26;98351.91;;;7.38;57.62
64189;BME280;50493;50.970;10.082;2024-03-25T06:47:51;98357.09;;;7.38;55.93
64189;BME280;50493;50.970;10.082;2024-03-25T06:50:17;98372.38;;;6.75;58.67
64189;BME280;50493;50.970;10.082;2024-03-25T06:52:42;98364.63;;;7.49;57.11
64189;BME280;50493;50.970;10.082;2024-03-25T06:55:08;98368.91;;;7.52;57.45
64189;BME280;50493;50.970;10.082;2024-03-25T06:57:34;98376.59;;;7.19;55.98
64189;BME280;50493;50.970;10.082;2024-03-25T07:00:00;98376.94;;;7.42;55.35
64189;BME280;50493;50.970;10.082;2024-03-25T07:02:25;98377.03;;;7.72;56.26
64189;BME280;50493;50.970;10.082;2024-03-25T07:04:50;98373.06;;;7.92;53.85
64189;BME280;50493;50.970;10.082;2024-03-25T07:07:16;98380.75;;;7.62;54.09
64189;BME280;50493;50.970;10.082;2024-03-25T07:09:41;98387.91;;;7.54;54.54
64189;BME280;50493;50.970;10.082;2024-03-25T07:12:07;98394.25;;;7.43;56.75
64189;BME280;50493;50.970;10.082;2024-03-25T07:14:34;98387.31;;;7.05;55.92
64189;BME280;50493;50.970;10.082;2024-03-25T07:16:59;98387.41;;;7.39;55.26
64189;BME280;50493;50.970;10.082;2024-03-25T07:19:24;98392.25;;;7.16;55.80
64189;BME280;50493;50.970;10.082;2024-03-25T07:21:50;98392.19;;;7.19;55.67
64189;BME280;50493;50.970;10.082;2024-03-25T07:24:15;98391.50;;;7.10;55.63
64189;BME280;50493;50.970;10.082;2024-03-25T07:26:40;98392.84;;;6.91;57.35
64189;BME280;50493;50.970;10.082;2024-03-25T07:29:06;98403.78;;;6.66;58.29
64189;BME280;50493;50.970;10.082;2024-03-25T07:31:34;98413.81;;;6.41;59.34
64189;BME280;50493;50.970;10.082;2024-03-25T07:33:59;98402.56;;;6.42;58.58
64189;BME280;50493;50.970;10.082;2024-03-25T07:36:24;98409.03;;;6.63;58.31
64189;BME280;50493;50.970;10.082;2024-03-25T07:38:49;98412.66;;;6.56;59.06
64189;BME280;50493;50.970;10.082;2024-03-25T07:41:15;98406.59;;;6.12;59.53
64189;BME280;50493;50.970;10.082;2024-03-25T07:43:40;98416.72;;;6.25;60.21
64189;BME280;50493;50.970;10.082;2024-03-25T07:46:06;98409.47;;;6.82;56.75
64189;BME280;50493;50.970;10.082;2024-03-25T07:48:32;98423.16;;;6.50;58.90
64189;BME280;50493;50.970;10.082;2024-03-25T07:50:58;98422.44;;;6.41;59.88
64189;BME280;50493;50.970;10.082;2024-03-25T07:53:24;98417.53;;;6.27;59.65
64189;BME280;50493;50.970;10.082;2024-03-25T07:55:49;98411.66;;;6.61;58.50
64189;BME280;50493;50.970;10.082;2024-03-25T07:58:16;98402.69;;;6.76;58.59
64189;BME280;50493;50.970;10.082;2024-03-25T08:00:41;98406.47;;;7.01;57.48
64189;BME280;50493;50.970;10.082;2024-03-25T08:03:06;98413.25;;;6.25;60.12
64189;BME280;50493;50.970;10.082;2024-03-25T08:05:34;98416.78;;;6.22;61.55
64189;BME280;50493;50.970;10.082;2024-03-25T08:07:59;98424.34;;;5.88;62.12
64189;BME280;50493;50.970;10.082;2024-03-25T08:10:25;98427.00;;;6.72;58.55
64189;BME280;50493;50.970;10.082;2024-03-25T08:12:50;98423.41;;;6.37;60.22
64189;BME280;50493;50.970;10.082;2024-03-25T08:15:15;98428.16;;;6.59;57.80
64189;BME280;50493;50.970;10.082;2024-03-25T08:17:41;98429.19;;;6.06;60.09
64189;BME280;50493;50.970;10.082;2024-03-25T08:20:07;98424.28;;;5.91;62.38
64189;BME280;50493;50.970;10.082;2024-03-25T08:22:34;98428.13;;;6.17;60.24
64189;BME280;50493;50.970;10.082;2024-03-25T08:25:00;98431.72;;;5.61;64.07
64189;BME280;50493;50.970;10.082;2024-03-25T08:27:25;98429.00;;;5.67;64.54
64189;BME280;50493;50.970;10.082;2024-03-25T08:29:50;98428.22;;;6.56;61.03
64189;BME280;50493;50.970;10.082;2024-03-25T08:32:18;98423.03;;;6.56;58.12
64189;BME280;50493;50.970;10.082;2024-03-25T08:34:43;98429.13;;;6.53;59.72
64189;BME280;50493;50.970;10.082;2024-03-25T08:37:09;98434.59;;;6.82;58.95
64189;BME280;50493;50.970;10.082;2024-03-25T08:39:36;98431.44;;;6.25;61.64
64189;BME280;50493;50.970;10.082;2024-03-25T08:42:01;98429.50;;;7.18;58.49
64189;BME280;50493;50.970;10.082;2024-03-25T08:44:26;98433.03;;;7.53;56.82
64189;BME280;50493;50.970;10.082;2024-03-25T08:46:51;98439.72;;;6.85;60.54
64189;BME280;50493;50.970;10.082;2024-03-25T08:49:17;98445.44;;;6.60;62.42
64189;BME280;50493;50.970;10.082;2024-03-25T08:51:42;98442.13;;;7.71;53.22
64189;BME280;50493;50.970;10.082;2024-03-25T08:54:07;98445.47;;;7.76;56.87
64189;BME280;50493;50.970;10.082;2024-03-25T08:56:34;98453.81;;;7.15;59.43
64189;BME280;50493;50.970;10.082;2024-03-25T08:58:59;98450.69;;;7.74;54.97
64189;BME280;50493;50.970;10.082;2024-03-25T09:01:25;98443.94;;;7.67;57.61
64189;BME280;50493;50.970;10.082;2024-03-25T09:03:51;98443.91;;;7.29;59.50
64189;BME280;50493;50.970;10.082;2024-03-25T09:06:16;98437.47;;;7.48;57.65
64189;BME280;50493;50.970;10.082;2024-03-25T09:08:42;98440.69;;;7.20;59.76
64189;BME280;50493;50.970;10.082;2024-03-25T09:11:27;98444.19;;;6.36;63.95
64189;BME280;50493;50.970;10.082;2024-03-25T09:13:54;98453.50;;;6.01;66.04
64189;BME280;50493;50.970;10.082;2024-03-25T09:16:19;98448.88;;;5.68;67.66
64189;BME280;50493;50.970;10.082;2024-03-25T09:18:44;98449.94;;;6.06;65.19
64189;BME280;50493;50.970;10.082;2024-03-25T09:21:10;98464.13;;;5.32;68.51
64189;BME280;50493;50.970;10.082;2024-03-25T09:23:36;98463.50;;;5.15;70.11
64189;BME280;50493;50.970;10.082;2024-03-25T09:26:01;98474.41;;;4.74;67.96
64189;BME280;50493;50.970;10.082;2024-03-25T09:28:26;98471.34;;;5.10;68.79
64189;BME280;50493;50.970;10.082;2024-03-25T09:30:53;98461.59;;;5.26;68.30
64189;BME280;50493;50.970;10.082;2024-03-25T09:33:19;98467.34;;;5.48;68.55
64189;BME280;50493;50.970;10.082;2024-03-25T09:35:44;98459.25;;;5.68;67.78
64189;BME280;50493;50.970;10.082;2024-03-25T09:38:10;98462.22;;;5.45;69.12
64189;BME280;50493;50.970;10.082;2024-03-25T09:40:35;98454.88;;;6.64;62.45
64189;BME280;50493;50.970;10.082;2024-03-25T09:43:07;98455.63;;;6.27;65.97
64189;BME280;50493;50.970;10.082;2024-03-25T09:45:38;98455.34;;;6.41;65.71
64189;BME280;50493;50.970;10.082;2024-03-25T09:48:07;98449.72;;;7.03;62.28
64189;BME280;50493;50.970;10.082;2024-03-25T09:50:33;98454.56;;;7.19;62.24
64189;BME280;50493;50.970;10.082;2024-03-25T09:52:58;98453.44;;;7.31;52.16
64189;BME280;50493;50.970;10.082;2024-03-25T09:55:24;98446.16;;;7.47;56.92
64189;BME280;50493;50.970;10.082;2024-03-25T09:57:50;98451.09;;;7.57;60.60
64189;BME280;50493;50.970;10.082;2024-03-25T10:00:16;98438.63;;;7.36;61.44
64189;BME280;50493;50.970;10.082;2024-03-25T10:02:41;98440.16;;;8.14;56.17
64189;BME280;50493;50.970;10.082;2024-03-25T10:05:08;98436.34;;;7.92;60.29
64189;BME280;50493;50.970;10.082;2024-03-25T10:07:34;98434.84;;;8.17;59.59
64189;BME280;50493;50.970;10.082;2024-03-25T10:10:03;98436.13;;;7.67;58.18
64189;BME280;50493;50.970;10.082;2024-03-25T10:12:28;98434.25;;;6.97;64.75
64189;BME280;50493;50.970;10.082;2024-03-25T10:14:53;98428.16;;;6.59;66.78
64189;BME280;50493;50.970;10.082;2024-03-25T10:17:19;98425.63;;;6.56;66.67
64189;BME280;50493;50.970;10.082;2024-03-25T10:19:44;98433.53;;;6.50;66.80
64189;BME280;50493;50.970;10.082;2024-03-25T10:22:11;98424.91;;;6.49;67.44
64189;BME280;50493;50.970;10.082;2024-03-25T10:24:37;98431.84;;;6.49;67.86
64189;BME280;50493;50.970;10.082;2024-03-25T10:27:03;98431.09;;;7.61;60.01
64189;BME280;50493;50.970;10.082;2024-03-25T10:29:29;98423.16;;;8.32;53.66
64189;BME280;50493;50.970;10.082;2024-03-25T10:31:58;98418.97;;;8.57;54.73
64189;BME280;50493;50.970;10.082;2024-03-25T10:34:24;98419.72;;;9.21;52.21
64189;BME280;50493;50.970;10.082;2024-03-25T10:36:49;98411.97;;;9.44;46.14
64189;BME280;50493;50.970;10.082;2024-03-25T10:39:17;98409.06;;;9.54;52.20
64189;BME280;50493;50.970;10.082;2024-03-25T10:41:43;98404.75;;;9.53;49.49
64189;BME280;50493;50.970;10.082;2024-03-25T10:44:09;98413.34;;;8.41;60.60
64189;BME280;50493;50.970;10.082;2024-03-25T10:46:34;98421.13;;;7.42;65.41
64189;BME280;50493;50.970;10.082;2024-03-25T10:51:44;98417.75;;;7.01;67.14
64189;BME280;50493;50.970;10.082;2024-03-25T10:54:10;98414.47;;;6.91;67.48
64189;BME280;50493;50.970;10.082;2024-03-25T10:56:38;98410.50;;;7.52;65.19
64189;BME280;50493;50.970;10.082;2024-03-25T10:59:05;98406.94;;;7.18;66.77
64189;BME280;50493;50.970;10.082;2024-03-25T11:01:32;98405.00;;;6.89;68.20
64189;BME280;50493;50.970;10.082;2024-03-25T11:03:58;98410.03;;;7.36;63.07
64189;BME280;50493;50.970;10.082;2024-03-25T11:06:24;98401.47;;;8.00;59.68
64189;BME280;50493;50.970;10.082;2024-03-25T11:08:55;98396.56;;;8.20;61.14
64189;BME280;50493;50.970;10.082;2024-03-25T11:11:22;98385.09;;;9.69;42.29
64189;BME280;50493;50.970;10.082;2024-03-25T11:13:49;98392.22;;;8.80;59.20
64189;BME280;50493;50.970;10.082;2024-03-25T11:16:26;98388.81;;;8.49;62.46
64189;BME280;50493;50.970;10.082;2024-03-25T11:18:51;98392.38;;;8.76;61.05
64189;BME280;50493;50.970;10.082;2024-03-25T11:21:24;98391.44;;;7.86;65.84
64189;BME280;50493;50.970;10.082;2024-03-25T11:23:50;98396.41;;;7.60;66.05
64189;BME280;50493;50.970;10.082;2024-03-25T11:26:19;98396.75;;;7.47;66.50
64189;BME280;50493;50.970;10.082;2024-03-25T11:28:45;98389.75;;;7.83;64.13
64189;BME280;50493;50.970;10.082;2024-03-25T11:31:12;98390.13;;;8.02;62.55
64189;BME280;50493;50.970;10.082;2024-03-25T11:33:37;98378.13;;;8.58;52.93
64189;BME280;50493;50.970;10.082;2024-03-25T11:36:04;98378.94;;;8.60;62.28
64189;BME280;50493;50.970;10.082;2024-03-25T11:38:29;98370.03;;;8.97;47.10
64189;BME280;50493;50.970;10.082;2024-03-25T11:40:54;98372.84;;;9.18;58.37
64189;BME280;50493;50.970;10.082;2024-03-25T11:43:22;98371.84;;;8.95;62.34
64189;BME280;50493;50.970;10.082;2024-03-25T11:45:47;98363.44;;;10.16;47.14
64189;BME280;50493;50.970;10.082;2024-03-25T11:48:15;98362.47;;;10.66;44.27
64189;BME280;50493;50.970;10.082;2024-03-25T11:50:40;98361.38;;;10.24;52.47
64189;BME280;50493;50.970;10.082;2024-03-25T11:53:06;98363.84;;;10.53;45.32
64189;BME280;50493;50.970;10.082;2024-03-25T11:55:31;98354.22;;;10.55;43.12
64189;BME280;50493;50.970;10.082;2024-03-25T11:57:57;98352.56;;;10.74;37.85
64189;BME280;50493;50.970;10.082;2024-03-25T12:00:24;98357.94;;;10.47;40.40
64189;BME280;50493;50.970;10.082;2024-03-25T12:02:49;98368.69;;;9.91;57.47
64189;BME280;50493;50.970;10.082;2024-03-25T12:05:18;98356.34;;;10.43;39.91
64189;BME280;50493;50.970;10.082;2024-03-25T12:07:43;98355.66;;;10.62;41.44
64189;BME280;50493;50.970;10.082;2024-03-25T12:10:09;98352.22;;;10.61;38.27
64189;BME280;50493;50.970;10.082;2024-03-25T12:12:53;98348.50;;;10.67;36.03
64189;BME280;50493;50.970;10.082;2024-03-25T12:15:19;98344.63;;;10.77;51.41
64189;BME280;50493;50.970;10.082;2024-03-25T12:17:45;98337.97;;;10.46;38.49
64189;BME280;50493;50.970;10.082;2024-03-25T12:20:11;98345.47;;;10.56;36.78
64189;BME280;50493;50.970;10.082;2024-03-25T12:22:39;98341.91;;;10.57;47.76
64189;BME280;50493;50.970;10.082;2024-03-25T12:25:06;98332.75;;;10.91;39.58
64189;BME280;50493;50.970;10.082;2024-03-25T12:27:32;98328.94;;;10.77;36.43
64189;BME280;50493;50.970;10.082;2024-03-25T12:30:00;98326.97;;;10.60;54.68
64189;BME280;50493;50.970;10.082;2024-03-25T12:32:36;98327.28;;;10.97;51.86
64189;BME280;50493;50.970;10.082;2024-03-25T12:35:02;98304.81;;;11.36;35.14
64189;BME280;50493;50.970;10.082;2024-03-25T12:37:28;98304.13;;;10.88;45.77
64189;BME280;50493;50.970;10.082;2024-03-25T12:39:55;98308.88;;;10.32;58.04
64189;BME280;50493;50.970;10.082;2024-03-25T12:42:23;98298.00;;;11.31;40.14
64189;BME280;50493;50.970;10.082;2024-03-25T12:44:49;98301.06;;;11.82;48.74
64189;BME280;50493;50.970;10.082;2024-03-25T12:47:14;98305.56;;;10.95;56.02
64189;BME280;50493;50.970;10.082;2024-03-25T12:49:39;98300.59;;;10.89;58.79
64189;BME280;50493;50.970;10.082;2024-03-25T12:52:05;98291.97;;;12.10;37.61
64189;BME280;50493;50.970;10.082;2024-03-25T12:54:31;98296.34;;;11.91;40.42
64189;BME280;50493;50.970;10.082;2024-03-25T12:56:58;98289.75;;;11.61;50.58